Time;durP1;ratioP1;P1;durP2;ratioP2;P2;SDS_P1;SDS_P2;PMS_P1;PMS_P2;Temp;Humidity;BMP_temperature;BMP_pressure;BME280_temperature;BME280_humidity;BME280_pressure;Samples;Min_cycle;Max_cycle;Signal;HPM_P1;HPM_P2
2021/08/11 00:02:25;;;;;;;2.13;1.30;;;26.00;52.30;;;;;;5044367;28;20063;-62
2021/08/11 00:04:51;;;;;;;1.83;1.20;;;26.00;52.30;;;;;;5047567;28;20029;-63
2021/08/11 00:07:16;;;;;;;2.25;1.23;;;26.00;52.30;;;;;;5047506;28;20033;-63
2021/08/11 00:09:42;;;;;;;2.25;1.27;;;25.90;52.30;;;;;;5047337;28;20025;-62
2021/08/11 00:12:08;;;;;;;1.88;1.30;;;25.90;52.30;;;;;;5044771;28;20636;-63
2021/08/11 00:14:33;;;;;;;1.70;1.10;;;25.90;52.30;;;;;;5048023;28;20039;-58
2021/08/11 00:16:59;;;;;;;2.35;1.30;;;25.90;52.30;;;;;;5046807;28;20403;-62
2021/08/11 00:19:25;;;;;;;2.53;1.20;;;25.90;52.30;;;;;;5044201;28;20027;-61
2021/08/11 00:21:50;;;;;;;1.83;1.33;;;25.90;52.40;;;;;;5049176;28;20048;-62
2021/08/11 00:24:16;;;;;;;2.80;1.33;;;25.90;52.40;;;;;;5047684;28;20037;-62
2021/08/11 00:26:41;;;;;;;1.95;1.25;;;25.80;52.40;;;;;;5046785;28;20090;-57
2021/08/11 00:29:07;;;;;;;2.05;1.10;;;25.90;52.40;;;;;;5048489;28;20028;-63
2021/08/11 00:31:33;;;;;;;2.15;1.20;;;25.80;52.40;;;;;;5046460;28;20451;-63
2021/08/11 00:33:58;;;;;;;1.83;1.30;;;25.80;52.40;;;;;;5042050;28;20087;-58
2021/08/11 00:36:24;;;;;;;2.17;1.30;;;25.80;52.40;;;;;;5046710;28;20021;-60
2021/08/11 00:38:49;;;;;;;2.00;1.20;;;25.80;52.40;;;;;;5048176;28;20116;-59
2021/08/11 00:41:15;;;;;;;1.65;1.15;;;25.80;52.40;;;;;;5045823;28;20029;-59
2021/08/11 00:43:42;;;;;;;1.40;1.08;;;25.80;52.50;;;;;;5051758;28;20028;-60
2021/08/11 00:46:08;;;;;;;2.00;1.20;;;25.80;52.50;;;;;;5050021;28;20052;-58
2021/08/11 00:48:35;;;;;;;1.95;1.20;;;25.70;52.40;;;;;;5044558;28;20040;-60
2021/08/11 00:51:02;;;;;;;1.77;1.20;;;25.70;52.40;;;;;;5042641;28;20394;-60
2021/08/11 00:53:29;;;;;;;1.67;1.10;;;25.70;52.40;;;;;;5046924;28;20021;-55
2021/08/11 00:55:59;;;;;;;1.58;1.05;;;25.70;52.50;;;;;;5052478;28;20032;-61
2021/08/11 00:58:26;;;;;;;2.65;1.38;;;25.70;53.00;;;;;;5046121;28;20021;-61
2021/08/11 01:00:53;;;;;;;1.75;1.20;;;25.70;52.50;;;;;;5046084;28;20362;-61
2021/08/11 01:03:22;;;;;;;1.85;1.20;;;25.70;52.50;;;;;;5027678;28;20032;-61
2021/08/11 01:05:50;;;;;;;1.60;1.10;;;25.70;52.60;;;;;;5046106;28;20059;-60
2021/08/11 01:08:18;;;;;;;2.33;1.40;;;25.70;52.50;;;;;;5043660;28;20029;-60
2021/08/11 01:10:46;;;;;;;1.95;1.27;;;25.70;52.60;;;;;;5038280;28;20486;-60
2021/08/11 01:13:13;;;;;;;1.45;1.10;;;25.60;52.50;;;;;;5045458;28;20456;-59
2021/08/11 01:15:39;;;;;;;1.83;1.17;;;25.60;52.50;;;;;;5043471;28;20079;-57
2021/08/11 01:18:05;;;;;;;1.98;1.10;;;25.60;52.50;;;;;;5044724;28;20236;-62
2021/08/11 01:20:36;;;;;;;1.67;1.20;;;25.60;52.60;;;;;;5043601;28;20113;-59
2021/08/11 01:23:07;;;;;;;1.75;1.20;;;25.60;52.60;;;;;;5043126;28;20326;-59
2021/08/11 01:25:38;;;;;;;1.83;1.23;;;25.60;52.60;;;;;;5041019;28;20106;-55
2021/08/11 01:28:07;;;;;;;1.50;1.20;;;25.60;52.60;;;;;;5044795;28;20103;-58
2021/08/11 01:30:55;;;;;;;1.65;1.10;;;25.60;52.60;;;;;;5043765;28;20124;-62
2021/08/11 01:33:47;;;;;;;2.72;1.40;;;25.60;52.60;;;;;;5040452;28;20029;-60
2021/08/11 01:36:25;;;;;;;1.80;1.20;;;25.60;52.60;;;;;;5045568;28;20509;-58
2021/08/11 01:38:58;;;;;;;1.85;1.38;;;25.60;52.60;;;;;;5044573;28;20024;-60
2021/08/11 01:41:33;;;;;;;1.60;1.10;;;25.50;52.60;;;;;;5042336;28;20025;-61
2021/08/11 01:43:59;;;;;;;1.38;1.00;;;25.50;53.10;;;;;;5035252;28;20056;-62
2021/08/11 01:46:27;;;;;;;1.65;1.05;;;25.50;52.60;;;;;;5039366;28;20511;-62
2021/08/11 01:48:57;;;;;;;1.40;1.00;;;25.50;52.60;;;;;;5041699;28;20029;-62
2021/08/11 01:51:22;;;;;;;1.83;1.20;;;25.50;52.60;;;;;;5044328;28;20052;-61
2021/08/11 01:53:49;;;;;;;1.80;1.20;;;25.50;52.60;;;;;;5043592;28;20063;-62
2021/08/11 01:56:17;;;;;;;2.25;1.30;;;25.50;52.70;;;;;;5045755;28;20024;-59
2021/08/11 01:58:44;;;;;;;2.03;1.17;;;25.50;52.70;;;;;;5045111;28;20033;-62
2021/08/11 02:01:11;;;;;;;1.65;1.30;;;25.50;52.70;;;;;;5038987;28;20033;-56
2021/08/11 02:03:37;;;;;;;2.05;1.20;;;25.50;52.70;;;;;;5043516;28;20024;-59
2021/08/11 02:06:04;;;;;;;1.70;1.17;;;25.40;52.60;;;;;;5044749;28;20074;-60
2021/08/11 02:08:32;;;;;;;1.75;1.20;;;25.40;52.60;;;;;;5042045;28;20479;-61
2021/08/11 02:11:00;;;;;;;2.08;1.20;;;25.40;52.60;;;;;;5040088;28;20056;-63
2021/08/11 02:13:27;;;;;;;1.75;1.30;;;25.40;52.70;;;;;;5038693;28;20476;-59
2021/08/11 02:15:53;;;;;;;1.70;1.20;;;25.40;52.60;;;;;;5046008;28;20480;-61
2021/08/11 02:18:19;;;;;;;1.55;1.20;;;25.40;52.70;;;;;;5037071;28;20029;-60
2021/08/11 02:20:46;;;;;;;2.13;1.20;;;25.40;52.70;;;;;;5044337;28;20031;-61
2021/08/11 02:23:12;;;;;;;2.10;1.10;;;25.40;52.70;;;;;;5042912;28;20021;-61
2021/08/11 02:26:15;;;;;;;1.65;1.25;;;25.40;52.70;;;;;;5045592;28;20107;-62
2021/08/11 02:29:00;;;;;;;2.45;1.50;;;25.40;52.70;;;;;;5043125;28;20117;-60
2021/08/11 02:31:54;;;;;;;1.38;1.10;;;25.40;52.70;;;;;;5041625;28;20118;-60
2021/08/11 02:34:29;;;;;;;1.75;1.17;;;25.40;52.70;;;;;;5039489;28;20036;-61
2021/08/11 02:36:59;;;;;;;2.13;1.50;;;25.40;52.80;;;;;;5043907;28;20491;-63
2021/08/11 02:39:31;;;;;;;1.70;1.10;;;25.40;52.70;;;;;;5045001;28;20024;-58
2021/08/11 02:42:05;;;;;;;2.25;1.20;;;25.30;52.70;;;;;;5038141;28;20135;-56
2021/08/11 02:44:41;;;;;;;1.65;1.20;;;25.40;52.80;;;;;;5037420;28;20174;-61
2021/08/11 02:47:07;;;;;;;1.50;1.10;;;25.30;52.70;;;;;;5043478;28;20028;-58
2021/08/11 02:49:35;;;;;;;1.83;1.20;;;25.30;52.70;;;;;;5042883;28;20058;-61
2021/08/11 02:52:01;;;;;;;1.85;1.30;;;25.30;52.70;;;;;;5035478;28;20033;-61
2021/08/11 02:54:28;;;;;;;2.33;1.70;;;25.30;52.70;;;;;;5045691;28;20090;-60
2021/08/11 02:56:55;;;;;;;1.65;1.20;;;25.30;52.70;;;;;;5041374;28;20039;-60
2021/08/11 02:59:23;;;;;;;1.98;1.27;;;25.30;52.80;;;;;;5044911;28;20520;-60
2021/08/11 03:01:50;;;;;;;1.33;1.00;;;25.30;52.80;;;;;;5041854;28;20029;-61
2021/08/11 03:04:16;;;;;;;2.03;1.30;;;25.30;52.80;;;;;;5044571;28;20079;-62
2021/08/11 03:06:42;;;;;;;1.40;1.10;;;25.20;52.70;;;;;;5040872;28;20055;-56
2021/08/11 03:09:09;;;;;;;1.75;1.20;;;25.30;52.80;;;;;;5043376;28;20120;-62
2021/08/11 03:11:36;;;;;;;1.77;1.20;;;25.20;52.70;;;;;;5041085;28;20033;-59
2021/08/11 03:14:04;;;;;;;1.85;1.20;;;25.30;52.80;;;;;;5045750;28;20064;-61
2021/08/11 03:16:29;;;;;;;1.52;1.10;;;25.20;52.70;;;;;;5040484;28;20364;-61
2021/08/11 03:18:55;;;;;;;1.50;1.00;;;25.20;52.80;;;;;;5036599;28;20048;-56
2021/08/11 03:21:21;;;;;;;1.27;1.10;;;25.20;52.80;;;;;;5045005;28;20542;-61
2021/08/11 03:23:47;;;;;;;1.77;1.38;;;25.20;52.80;;;;;;5039764;28;20280;-59
2021/08/11 03:26:12;;;;;;;1.83;1.20;;;25.20;52.80;;;;;;5045119;28;20322;-56
2021/08/11 03:28:38;;;;;;;1.92;1.35;;;25.20;52.80;;;;;;5042817;28;20029;-61
2021/08/11 03:31:04;;;;;;;1.40;1.17;;;25.20;52.80;;;;;;5041877;28;20049;-59
2021/08/11 03:33:29;;;;;;;1.60;1.10;;;25.20;52.80;;;;;;5040459;28;20125;-55
2021/08/11 03:35:55;;;;;;;1.80;1.10;;;25.20;52.80;;;;;;5043341;28;20071;-59
2021/08/11 03:38:21;;;;;;;2.05;1.40;;;25.20;52.80;;;;;;5043509;28;20025;-58
2021/08/11 03:40:46;;;;;;;1.30;1.00;;;25.20;52.80;;;;;;5041321;28;20028;-60
2021/08/11 03:43:12;;;;;;;1.73;1.13;;;25.10;52.80;;;;;;5041812;28;20113;-61
2021/08/11 03:45:38;;;;;;;1.73;1.17;;;25.10;52.80;;;;;;5043123;28;20481;-61
2021/08/11 03:48:04;;;;;;;2.00;1.20;;;25.10;52.80;;;;;;5042020;28;20713;-60
2021/08/11 03:50:30;;;;;;;1.52;1.20;;;25.10;52.80;;;;;;5042164;28;20146;-60
2021/08/11 03:52:56;;;;;;;2.40;1.20;;;25.10;52.80;;;;;;5041899;28;20096;-60
2021/08/11 03:55:21;;;;;;;1.38;1.00;;;25.10;52.80;;;;;;5038708;28;20077;-61
2021/08/11 03:57:47;;;;;;;1.60;1.00;;;25.10;52.90;;;;;;5043597;28;20025;-62
2021/08/11 04:00:13;;;;;;;1.50;1.00;;;25.10;52.80;;;;;;5041598;28;20472;-63
2021/08/11 04:02:39;;;;;;;1.92;1.30;;;25.10;52.80;;;;;;5036283;28;20032;-61
2021/08/11 04:05:08;;;;;;;1.10;1.00;;;25.10;52.80;;;;;;5035984;28;20029;-63
2021/08/11 04:07:35;;;;;;;1.55;1.20;;;25.10;52.90;;;;;;5036020;28;20033;-56
2021/08/11 04:10:03;;;;;;;1.83;1.13;;;25.10;53.10;;;;;;5035532;28;20578;-60
2021/08/11 04:12:29;;;;;;;1.55;1.20;;;25.10;52.90;;;;;;5037168;28;20021;-58
2021/08/11 04:14:55;;;;;;;1.90;1.05;;;25.10;52.90;;;;;;5036109;28;20043;-58
2021/08/11 04:17:20;;;;;;;1.70;1.20;;;25.10;52.90;;;;;;5034503;28;20487;-61
2021/08/11 04:19:46;;;;;;;1.73;1.30;;;25.10;52.90;;;;;;5040654;28;20072;-61
2021/08/11 04:22:11;;;;;;;1.67;1.17;;;25.10;52.90;;;;;;5040795;28;20025;-61
2021/08/11 04:24:37;;;;;;;1.63;1.10;;;25.10;52.90;;;;;;5038484;28;20044;-61
2021/08/11 04:27:02;;;;;;;1.50;1.17;;;25.10;52.90;;;;;;5038311;28;20431;-57
2021/08/11 04:29:28;;;;;;;1.90;1.20;;;25.00;52.90;;;;;;5046084;28;21337;-60
2021/08/11 04:31:54;;;;;;;1.60;1.10;;;25.10;52.90;;;;;;5039261;28;20045;-61
2021/08/11 04:34:20;;;;;;;1.88;1.17;;;25.00;52.80;;;;;;5042134;28;20029;-61
2021/08/11 04:36:45;;;;;;;1.30;1.08;;;25.00;52.90;;;;;;5040667;28;20039;-61
2021/08/11 04:39:11;;;;;;;1.65;1.20;;;25.00;52.90;;;;;;5045777;28;20037;-60
2021/08/11 04:41:36;;;;;;;1.40;1.10;;;25.00;52.90;;;;;;5044090;28;20495;-61
2021/08/11 04:44:03;;;;;;;1.52;1.17;;;25.00;52.90;;;;;;5044035;28;20029;-62
2021/08/11 04:46:29;;;;;;;2.20;1.15;;;25.00;52.90;;;;;;5057224;28;20075;-62
2021/08/11 04:48:54;;;;;;;1.67;1.20;;;25.00;52.90;;;;;;5036919;28;20032;-57
2021/08/11 04:51:21;;;;;;;1.33;1.10;;;25.00;52.90;;;;;;5037366;28;20140;-61
2021/08/11 04:53:46;;;;;;;1.30;0.90;;;25.00;52.90;;;;;;5039496;28;20064;-61
2021/08/11 04:56:12;;;;;;;1.60;1.10;;;25.00;52.90;;;;;;5039495;28;20513;-62
2021/08/11 04:58:37;;;;;;;1.83;1.10;;;25.00;52.90;;;;;;5040113;28;20044;-62
2021/08/11 05:01:03;;;;;;;1.15;1.05;;;24.90;52.90;;;;;;5045133;28;20060;-61
2021/08/11 05:03:34;;;;;;;1.50;1.10;;;24.90;52.90;;;;;;5047509;28;20048;-61
2021/08/11 05:06:00;;;;;;;1.45;1.00;;;24.90;52.90;;;;;;5045964;28;20049;-56
2021/08/11 05:08:25;;;;;;;1.40;1.10;;;24.90;52.90;;;;;;5040104;28;20060;-61
2021/08/11 05:10:51;;;;;;;2.30;1.40;;;24.90;53.00;;;;;;5038987;28;20472;-61
2021/08/11 05:13:17;;;;;;;2.58;1.20;;;24.90;53.00;;;;;;5040528;28;20041;-62
2021/08/11 05:15:42;;;;;;;2.30;1.30;;;24.90;52.60;;;;;;5043053;28;20029;-58
2021/08/11 05:18:08;;;;;;;2.95;1.70;;;24.90;52.00;;;;;;5039946;28;20017;-61
2021/08/11 05:20:34;;;;;;;2.50;1.50;;;24.90;51.80;;;;;;5046551;28;20043;-59
2021/08/11 05:22:59;;;;;;;2.88;1.63;;;24.80;51.50;;;;;;5046890;28;20104;-61
2021/08/11 05:25:25;;;;;;;2.63;1.60;;;24.80;51.60;;;;;;5040826;28;20051;-63
2021/08/11 05:27:50;;;;;;;3.08;1.73;;;24.80;51.50;;;;;;5043863;28;20061;-60
2021/08/11 05:30:16;;;;;;;2.72;1.70;;;24.70;51.60;;;;;;5043398;28;20485;-61
2021/08/11 05:32:42;;;;;;;2.90;1.77;;;24.70;51.60;;;;;;5039509;28;20071;-60
2021/08/11 05:35:08;;;;;;;3.10;1.90;;;24.70;51.60;;;;;;5042544;28;20032;-63
2021/08/11 05:37:33;;;;;;;3.08;2.08;;;24.70;51.70;;;;;;5047335;28;20017;-60
2021/08/11 05:39:59;;;;;;;4.45;1.90;;;24.60;51.70;;;;;;5043051;28;20047;-59
2021/08/11 05:42:25;;;;;;;2.75;1.80;;;24.60;51.80;;;;;;5043113;28;20033;-63
2021/08/11 05:44:50;;;;;;;4.05;1.88;;;24.60;51.90;;;;;;5044639;28;20039;-62
2021/08/11 05:47:16;;;;;;;2.25;1.65;;;24.60;51.90;;;;;;5037809;28;20369;-61
2021/08/11 05:49:42;;;;;;;2.70;1.60;;;24.60;52.10;;;;;;5042168;28;20091;-61
2021/08/11 05:52:08;;;;;;;2.42;1.65;;;24.50;52.10;;;;;;5039244;28;20028;-63
2021/08/11 05:54:35;;;;;;;3.28;2.00;;;24.50;52.70;;;;;;5045783;28;20064;-58
2021/08/11 05:57:01;;;;;;;2.92;1.55;;;24.50;52.30;;;;;;5041190;28;20108;-61
2021/08/11 05:59:28;;;;;;;2.85;1.70;;;24.50;52.30;;;;;;5050495;28;20033;-56
2021/08/11 06:01:53;;;;;;;2.75;1.60;;;24.50;52.50;;;;;;5042320;28;20037;-62
2021/08/11 06:04:20;;;;;;;2.50;1.60;;;24.50;52.50;;;;;;5044520;28;20064;-64
2021/08/11 06:06:46;;;;;;;2.42;1.40;;;24.50;52.50;;;;;;5046076;28;20415;-59
2021/08/11 06:09:11;;;;;;;3.22;1.63;;;24.40;52.50;;;;;;5037997;28;20033;-55
2021/08/11 06:11:37;;;;;;;2.22;1.50;;;24.50;52.50;;;;;;5038053;28;20037;-61
2021/08/11 06:14:03;;;;;;;2.25;1.50;;;24.50;52.60;;;;;;5034527;28;22269;-60
2021/08/11 06:16:28;;;;;;;2.83;1.63;;;24.40;52.50;;;;;;5035883;28;20037;-56
2021/08/11 06:18:56;;;;;;;2.15;1.40;;;24.40;52.60;;;;;;5039312;28;20375;-59
2021/08/11 06:21:23;;;;;;;2.75;1.65;;;24.40;52.50;;;;;;5041057;28;20496;-59
2021/08/11 06:23:51;;;;;;;1.92;1.40;;;24.40;52.60;;;;;;5035466;28;20025;-57
2021/08/11 06:26:17;;;;;;;2.22;1.33;;;24.40;52.60;;;;;;5034209;28;20510;-61
2021/08/11 06:28:43;;;;;;;2.17;1.35;;;24.40;52.60;;;;;;5037832;28;20397;-60
2021/08/11 06:31:09;;;;;;;3.10;1.83;;;24.40;52.60;;;;;;5026053;28;20079;-57
2021/08/11 06:33:34;;;;;;;1.80;1.48;;;24.40;52.60;;;;;;5031691;28;20439;-62
2021/08/11 06:36:00;;;;;;;2.90;1.63;;;24.40;52.60;;;;;;5036121;28;20029;-61
2021/08/11 06:38:26;;;;;;;2.53;1.40;;;24.40;52.70;;;;;;5034729;28;20047;-58
2021/08/11 06:40:52;;;;;;;2.97;1.50;;;24.40;52.70;;;;;;5033992;28;20029;-59
2021/08/11 06:43:19;;;;;;;2.47;1.35;;;24.40;52.70;;;;;;5032887;28;20448;-61
2021/08/11 06:45:44;;;;;;;2.10;1.40;;;24.40;52.70;;;;;;5033254;28;20397;-59
2021/08/11 06:48:10;;;;;;;2.00;1.50;;;24.40;52.70;;;;;;5033557;28;20111;-60
2021/08/11 06:50:36;;;;;;;2.10;1.20;;;24.40;52.80;;;;;;5034314;28;20033;-58
2021/08/11 06:53:01;;;;;;;2.10;1.30;;;24.40;52.70;;;;;;5032237;28;20115;-58
2021/08/11 06:55:27;;;;;;;2.28;1.33;;;24.40;52.80;;;;;;5034331;28;20047;-59
2021/08/11 06:57:52;;;;;;;1.95;1.17;;;24.40;52.80;;;;;;5033821;28;20029;-60
2021/08/11 07:00:19;;;;;;;1.98;1.50;;;24.40;52.80;;;;;;5033586;28;20025;-59
2021/08/11 07:02:45;;;;;;;2.50;1.50;;;24.40;52.80;;;;;;5033506;28;20445;-60
2021/08/11 07:05:12;;;;;;;3.25;1.50;;;24.40;52.80;;;;;;5032943;28;20037;-60
2021/08/11 07:07:38;;;;;;;2.15;1.50;;;24.40;52.80;;;;;;5033890;28;20036;-57
2021/08/11 07:10:06;;;;;;;2.33;1.50;;;24.40;52.90;;;;;;5033150;28;20036;-59
2021/08/11 07:12:32;;;;;;;2.58;1.50;;;24.40;52.90;;;;;;5031808;28;20148;-60
2021/08/11 07:14:57;;;;;;;2.50;1.52;;;24.40;52.90;;;;;;5039324;28;20278;-57
2021/08/11 07:17:23;;;;;;;2.60;1.40;;;24.40;52.90;;;;;;5039977;28;20022;-59
2021/08/11 07:19:48;;;;;;;2.47;1.55;;;24.40;52.90;;;;;;5034420;28;20668;-61
2021/08/11 07:22:14;;;;;;;3.42;1.90;;;24.40;53.00;;;;;;5033885;28;20041;-61
2021/08/11 07:24:40;;;;;;;2.30;1.40;;;24.40;53.00;;;;;;5035007;28;20033;-60
2021/08/11 07:27:06;;;;;;;2.00;1.30;;;24.40;53.00;;;;;;5034192;28;20033;-61
2021/08/11 07:29:32;;;;;;;2.10;1.38;;;24.40;53.00;;;;;;5032585;28;20032;-60
2021/08/11 07:31:58;;;;;;;2.00;1.20;;;24.40;53.00;;;;;;5032993;28;20090;-61
2021/08/11 07:34:23;;;;;;;2.35;1.33;;;24.40;53.10;;;;;;5033992;28;20021;-60
2021/08/11 07:36:49;;;;;;;2.03;1.30;;;24.30;53.00;;;;;;5037170;28;20488;-57
2021/08/11 07:39:15;;;;;;;3.03;1.60;;;24.30;53.00;;;;;;5034594;28;20329;-62
2021/08/11 07:41:40;;;;;;;2.30;1.35;;;24.40;53.00;;;;;;5031142;28;20036;-59
2021/08/11 07:44:06;;;;;;;1.83;1.20;;;24.30;53.00;;;;;;5038362;28;20029;-60
2021/08/11 07:46:32;;;;;;;1.80;1.25;;;24.40;53.10;;;;;;5037685;28;20023;-59
2021/08/11 07:48:59;;;;;;;2.03;1.30;;;24.30;53.00;;;;;;5033026;28;20033;-59
2021/08/11 07:51:26;;;;;;;2.20;1.42;;;24.40;53.10;;;;;;5031685;28;20037;-57
2021/08/11 07:53:52;;;;;;;2.15;1.30;;;24.40;53.10;;;;;;5035221;28;20040;-61
2021/08/11 07:56:18;;;;;;;3.13;1.30;;;24.30;53.00;;;;;;5043489;28;20029;-56
2021/08/11 07:58:43;;;;;;;2.55;1.60;;;24.30;53.10;;;;;;5042193;28;20024;-60
2021/08/11 08:01:09;;;;;;;1.77;1.30;;;24.30;53.10;;;;;;5042425;28;20036;-56
2021/08/11 08:03:34;;;;;;;2.70;1.40;;;24.40;53.10;;;;;;5042952;28;20029;-59
2021/08/11 08:06:00;;;;;;;2.17;1.40;;;24.30;53.10;;;;;;5043003;28;20028;-61
2021/08/11 08:08:25;;;;;;;1.92;1.40;;;24.30;53.10;;;;;;5044424;28;20628;-59
2021/08/11 08:10:51;;;;;;;1.90;1.30;;;24.40;53.20;;;;;;5053979;28;20082;-60
2021/08/11 08:13:20;;;;;;;2.22;1.33;;;24.40;53.20;;;;;;5041495;28;20119;-54
2021/08/11 08:15:47;;;;;;;1.92;1.40;;;24.40;53.20;;;;;;5041051;28;20076;-61
2021/08/11 08:18:12;;;;;;;2.28;1.40;;;24.40;53.20;;;;;;5038014;28;20599;-62
2021/08/11 08:20:38;;;;;;;2.13;1.40;;;24.30;53.20;;;;;;5039506;28;20100;-61
2021/08/11 08:23:04;;;;;;;2.08;1.30;;;24.40;53.20;;;;;;5048436;28;20054;-61
2021/08/11 08:25:29;;;;;;;1.80;1.25;;;24.40;53.20;;;;;;5045177;28;20025;-61
2021/08/11 08:27:55;;;;;;;1.90;1.40;;;24.30;53.70;;;;;;5042867;28;20124;-61
2021/08/11 08:30:21;;;;;;;2.00;1.27;;;24.30;53.10;;;;;;5037031;28;20035;-61
2021/08/11 08:32:49;;;;;;;2.33;1.40;;;24.30;53.20;;;;;;5045622;28;20043;-60
2021/08/11 08:35:15;;;;;;;2.38;1.50;;;24.40;53.20;;;;;;5043873;28;20056;-61
2021/08/11 08:37:42;;;;;;;2.42;1.40;;;24.40;53.20;;;;;;5043490;28;20075;-59
2021/08/11 08:40:11;;;;;;;2.85;1.48;;;24.30;53.10;;;;;;5043698;28;20357;-61
2021/08/11 08:42:39;;;;;;;2.38;1.58;;;24.30;53.20;;;;;;5035477;28;20186;-61
2021/08/11 08:45:05;;;;;;;2.35;1.23;;;24.40;53.20;;;;;;5039413;28;20064;-59
2021/08/11 08:47:32;;;;;;;2.13;1.40;;;24.40;53.20;;;;;;5036711;28;20224;-59
2021/08/11 08:50:00;;;;;;;2.83;1.30;;;24.40;53.20;;;;;;5035239;28;22041;-60
2021/08/11 08:52:27;;;;;;;2.30;1.55;;;24.40;53.20;;;;;;5039538;28;20125;-61
2021/08/11 08:54:57;;;;;;;2.05;1.30;;;24.40;53.20;;;;;;5033793;28;20033;-60
2021/08/11 08:57:22;;;;;;;1.98;1.30;;;24.40;53.40;;;;;;5042061;28;20115;-60
2021/08/11 08:59:49;;;;;;;2.33;1.40;;;24.50;53.30;;;;;;5039169;28;20021;-60
2021/08/11 09:02:14;;;;;;;1.95;1.33;;;24.50;53.20;;;;;;5039437;28;20516;-59
2021/08/11 09:04:41;;;;;;;2.60;1.40;;;24.50;53.20;;;;;;5041351;28;20102;-59
2021/08/11 09:07:14;;;;;;;2.05;1.33;;;24.60;53.10;;;;;;5042123;28;20025;-60
2021/08/11 09:09:40;;;;;;;2.17;1.40;;;24.60;53.10;;;;;;5043500;28;20032;-60
2021/08/11 09:12:14;;;;;;;2.25;1.30;;;24.60;52.90;;;;;;5041253;28;20389;-60
2021/08/11 09:14:44;;;;;;;2.17;1.35;;;24.60;52.90;;;;;;5047880;28;20390;-60
2021/08/11 09:17:11;;;;;;;2.75;1.45;;;24.70;53.00;;;;;;5041831;28;20098;-60
2021/08/11 09:19:39;;;;;;;2.13;1.40;;;24.70;52.90;;;;;;5036245;28;20075;-62
2021/08/11 09:22:08;;;;;;;2.30;1.40;;;24.70;52.80;;;;;;5043068;28;20481;-60
2021/08/11 09:24:36;;;;;;;1.63;1.20;;;24.80;52.80;;;;;;5038916;28;20199;-59
2021/08/11 09:27:24;;;;;;;2.28;1.40;;;24.80;52.80;;;;;;5042511;28;20040;-60
2021/08/11 09:30:09;;;;;;;2.28;1.30;;;24.80;52.70;;;;;;5034885;28;20044;-59
2021/08/11 09:32:49;;;;;;;2.03;1.40;;;24.80;52.70;;;;;;5034469;28;20540;-60
2021/08/11 09:35:23;;;;;;;1.75;1.20;;;24.90;52.80;;;;;;5038431;28;20087;-60
2021/08/11 09:37:49;;;;;;;1.70;1.20;;;24.90;53.20;;;;;;5031606;28;20025;-61
2021/08/11 09:40:29;;;;;;;1.77;1.10;;;24.90;52.70;;;;;;5032126;28;20028;-62
2021/08/11 09:43:07;;;;;;;1.77;1.20;;;24.90;52.70;;;;;;5028036;28;20170;-60
2021/08/11 09:45:52;;;;;;;1.90;1.30;;;24.90;52.70;;;;;;5038546;28;20049;-60
2021/08/11 09:48:39;;;;;;;1.90;1.30;;;24.90;52.60;;;;;;5034997;28;20037;-61
2021/08/11 09:51:06;;;;;;;1.75;1.20;;;24.90;52.60;;;;;;5035570;28;20373;-62
2021/08/11 09:53:32;;;;;;;2.63;1.23;;;25.00;52.70;;;;;;5041414;28;20021;-60
2021/08/11 09:56:08;;;;;;;1.50;1.13;;;25.00;52.70;;;;;;5034666;28;20068;-60
2021/08/11 09:58:45;;;;;;;1.90;1.33;;;25.00;52.60;;;;;;5035086;28;20464;-61
2021/08/11 10:01:14;;;;;;;1.95;1.15;;;24.90;52.60;;;;;;5035370;28;20037;-61
2021/08/11 10:04:06;;;;;;;2.03;1.23;;;24.90;52.60;;;;;;5033614;28;20059;-61
2021/08/11 10:06:34;;;;;;;1.65;1.20;;;25.00;52.60;;;;;;5051858;28;20036;-60
2021/08/11 10:09:16;;;;;;;2.00;1.20;;;25.00;52.60;;;;;;5044319;28;20110;-61
2021/08/11 10:11:50;;;;;;;1.83;1.30;;;25.00;52.60;;;;;;5036750;28;20678;-60
2021/08/11 10:14:18;;;;;;;2.30;1.20;;;25.00;52.60;;;;;;5034780;28;20034;-62
2021/08/11 10:16:45;;;;;;;2.17;1.30;;;25.00;52.60;;;;;;5037632;28;20025;-60
2021/08/11 10:19:12;;;;;;;1.67;1.20;;;25.00;52.60;;;;;;5033073;28;20025;-60
2021/08/11 10:22:06;;;;;;;1.90;1.30;;;25.00;52.60;;;;;;5038493;28;20029;-61
2021/08/11 10:24:34;;;;;;;1.77;1.10;;;25.00;52.60;;;;;;5033397;28;20029;-61
2021/08/11 10:27:00;;;;;;;2.22;1.33;;;25.00;52.60;;;;;;5037077;28;20033;-61
2021/08/11 10:29:26;;;;;;;1.80;1.15;;;25.00;52.60;;;;;;5034820;28;20056;-61
2021/08/11 10:31:53;;;;;;;2.20;1.40;;;25.00;53.10;;;;;;5034755;28;20057;-61
2021/08/11 10:34:20;;;;;;;2.53;1.10;;;25.00;52.60;;;;;;5032788;28;20048;-59
2021/08/11 10:36:47;;;;;;;1.63;1.10;;;25.00;52.60;;;;;;5034652;28;20063;-62
2021/08/11 10:39:16;;;;;;;2.22;1.25;;;25.00;52.60;;;;;;5034674;28;20424;-61
2021/08/11 10:41:42;;;;;;;1.55;1.02;;;25.10;52.70;;;;;;5033981;28;20441;-61
2021/08/11 10:44:17;;;;;;;2.67;1.40;;;25.00;52.60;;;;;;5036125;28;20031;-61
2021/08/11 10:46:46;;;;;;;1.50;1.00;;;25.00;52.60;;;;;;5043804;28;20041;-61
2021/08/11 10:49:18;;;;;;;1.95;1.20;;;25.10;52.70;;;;;;5034753;28;20116;-62
2021/08/11 10:51:49;;;;;;;2.00;1.20;;;25.10;52.70;;;;;;5031580;28;20038;-61
2021/08/11 10:54:15;;;;;;;1.70;1.20;;;25.10;52.80;;;;;;5028223;28;20067;-61
2021/08/11 10:56:52;;;;;;;1.70;1.20;;;25.10;52.70;;;;;;5032190;28;20131;-62
2021/08/11 10:59:24;;;;;;;2.08;1.20;;;25.20;52.70;;;;;;5030557;28;20094;-60
2021/08/11 11:01:54;;;;;;;2.22;1.25;;;25.20;52.60;;;;;;5030205;28;20033;-61
2021/08/11 11:04:40;;;;;;;1.83;1.40;;;25.20;52.50;;;;;;5032190;28;20044;-62
2021/08/11 11:07:16;;;;;;;2.20;1.40;;;25.30;52.60;;;;;;5029867;28;21195;-61
2021/08/11 11:09:46;;;;;;;2.10;1.30;;;25.30;52.50;;;;;;5033570;28;20025;-61
2021/08/11 11:12:18;;;;;;;1.63;1.17;;;25.30;52.40;;;;;;5027915;28;20080;-61
2021/08/11 11:14:52;;;;;;;2.05;1.40;;;25.40;52.50;;;;;;5033853;28;20029;-60
2021/08/11 11:17:19;;;;;;;1.67;1.25;;;25.40;52.40;;;;;;5033844;28;20067;-58
2021/08/11 11:20:03;;;;;;;2.00;1.27;;;25.40;52.40;;;;;;5031144;28;20044;-61
2021/08/11 11:22:57;;;;;;;1.80;1.10;;;25.50;52.40;;;;;;5035291;28;20042;-63
2021/08/11 11:25:58;;;;;;;1.80;1.30;;;25.50;52.40;;;;;;5027391;28;20587;-61
2021/08/11 11:28:54;;;;;;;1.90;1.20;;;25.50;52.40;;;;;;5031455;28;20068;-60
2021/08/11 11:31:35;;;;;;;2.03;1.38;;;25.60;52.40;;;;;;5002598;28;20041;-61
2021/08/11 11:34:22;;;;;;;2.35;1.40;;;25.60;52.30;;;;;;5036376;28;20040;-63
2021/08/11 11:37:08;;;;;;;2.03;1.30;;;25.60;52.30;;;;;;5038120;28;20128;-61
2021/08/11 11:39:41;;;;;;;2.05;1.30;;;25.70;52.20;;;;;;5044739;28;20452;-61
2021/08/11 11:42:11;;;;;;;1.92;1.25;;;25.70;52.30;;;;;;5046039;28;20033;-61
2021/08/11 11:44:49;;;;;;;1.67;1.10;;;25.70;52.20;;;;;;5044833;28;20095;-62
2021/08/11 11:47:34;;;;;;;3.13;1.30;;;25.70;52.40;;;;;;5032928;28;20061;-61
2021/08/11 11:50:21;;;;;;;2.95;1.67;;;25.70;52.80;;;;;;5046684;28;20032;-61
2021/08/11 11:53:06;;;;;;;1.70;1.20;;;25.80;52.30;;;;;;5030584;28;20915;-62
2021/08/11 11:55:42;;;;;;;2.20;1.30;;;25.70;52.20;;;;;;5034777;28;20030;-63
2021/08/11 11:58:21;;;;;;;1.50;1.20;;;25.70;52.30;;;;;;5035740;28;20036;-61
2021/08/11 12:00:49;;;;;;;1.70;1.20;;;25.80;52.40;;;;;;5034528;28;20083;-60
2021/08/11 12:03:15;;;;;;;1.90;1.30;;;25.80;52.40;;;;;;5033957;28;20040;-62
2021/08/11 12:05:43;;;;;;;1.70;1.30;;;25.70;52.30;;;;;;5033897;28;20067;-62
2021/08/11 12:08:13;;;;;;;1.88;1.20;;;25.70;52.30;;;;;;5016956;28;20425;-61
2021/08/11 12:10:39;;;;;;;1.80;1.20;;;25.70;52.40;;;;;;5032993;28;20157;-60
2021/08/11 12:13:05;;;;;;;2.03;1.17;;;25.70;52.40;;;;;;5033232;28;20049;-62
2021/08/11 12:15:34;;;;;;;1.75;1.30;;;25.80;52.50;;;;;;5032548;28;20041;-62
2021/08/11 12:18:12;;;;;;;1.90;1.30;;;25.80;52.50;;;;;;5033452;28;20420;-61
2021/08/11 12:20:38;;;;;;;1.58;1.00;;;25.80;52.50;;;;;;5035024;28;20044;-61
2021/08/11 12:23:19;;;;;;;1.77;1.10;;;25.70;52.40;;;;;;5040088;28;20029;-61
2021/08/11 12:25:47;;;;;;;1.65;1.13;;;25.70;52.50;;;;;;5038927;28;20466;-60
2021/08/11 12:28:24;;;;;;;2.00;1.17;;;25.70;52.50;;;;;;5042294;28;20048;-62
2021/08/11 12:31:00;;;;;;;1.50;1.20;;;25.80;52.50;;;;;;5040149;28;20044;-62
2021/08/11 12:33:28;;;;;;;1.60;1.15;;;25.80;52.60;;;;;;5041003;28;20037;-59
2021/08/11 12:35:55;;;;;;;1.70;1.17;;;25.80;52.60;;;;;;5046851;28;20299;-60
2021/08/11 12:38:31;;;;;;;1.52;1.10;;;25.80;52.70;;;;;;5038015;28;20025;-63
2021/08/11 12:40:58;;;;;;;1.50;1.20;;;25.70;52.60;;;;;;5046594;28;20025;-61
2021/08/11 12:43:37;;;;;;;1.63;1.20;;;25.80;52.70;;;;;;5035621;28;20084;-60
2021/08/11 12:46:05;;;;;;;1.35;1.10;;;25.80;52.70;;;;;;5046317;28;20588;-61
2021/08/11 12:48:32;;;;;;;2.45;1.30;;;25.80;52.70;;;;;;5042884;28;20083;-60
2021/08/11 12:51:01;;;;;;;1.45;1.02;;;25.80;52.70;;;;;;5042122;28;20032;-59
2021/08/11 12:53:35;;;;;;;1.98;1.20;;;25.80;52.70;;;;;;5044131;28;20060;-60
2021/08/11 12:56:07;;;;;;;1.17;1.00;;;25.70;52.60;;;;;;5038216;28;20033;-63
2021/08/11 12:58:55;;;;;;;1.80;1.20;;;25.80;52.70;;;;;;5036901;28;20128;-59